sensor_id;sensor_type;location;lat;lon;timestamp;temperature;humidity
9973;DHT22;5027;53.560;10.062;2023-11-19T00:00:09;9.60;99.90
9973;DHT22;5027;53.560;10.062;2023-11-19T00:02:40;9.60;99.90
9973;DHT22;5027;53.560;10.062;2023-11-19T00:05:08;9.70;99.90
9973;DHT22;5027;53.560;10.062;2023-11-19T00:07:36;9.60;99.90
9973;DHT22;5027;53.560;10.062;2023-11-19T00:10:04;9.40;99.90
9973;DHT22;5027;53.560;10.062;2023-11-19T00:12:33;9.40;99.90
9973;DHT22;5027;53.560;10.062;2023-11-19T00:15:01;9.40;99.90
9973;DHT22;5027;53.560;10.062;2023-11-19T00:17:28;9.50;99.90
9973;DHT22;5027;53.560;10.062;2023-11-19T00:19:54;9.50;99.90
9973;DHT22;5027;53.560;10.062;2023-11-19T00:22:21;9.50;99.90
9973;DHT22;5027;53.560;10.062;2023-11-19T00:24:49;9.50;99.90
9973;DHT22;5027;53.560;10.062;2023-11-19T00:27:16;9.50;99.90
9973;DHT22;5027;53.560;10.062;2023-11-19T00:29:43;9.50;99.90
9973;DHT22;5027;53.560;10.062;2023-11-19T00:32:11;9.60;99.90
9973;DHT22;5027;53.560;10.062;2023-11-19T00:34:38;9.50;99.90
9973;DHT22;5027;53.560;10.062;2023-11-19T00:37:05;9.50;99.90
9973;DHT22;5027;53.560;10.062;2023-11-19T00:39:33;9.50;99.90
9973;DHT22;5027;53.560;10.062;2023-11-19T00:42:00;9.40;99.90
9973;DHT22;5027;53.560;10.062;2023-11-19T00:44:26;9.40;99.90
9973;DHT22;5027;53.560;10.062;2023-11-19T00:46:53;9.50;99.90
9973;DHT22;5027;53.560;10.062;2023-11-19T00:49:20;9.50;99.90
9973;DHT22;5027;53.560;10.062;2023-11-19T00:51:47;9.40;99.90
9973;DHT22;5027;53.560;10.062;2023-11-19T00:54:13;9.60;99.90
9973;DHT22;5027;53.560;10.062;2023-11-19T00:56:40;9.60;99.90
9973;DHT22;5027;53.560;10.062;2023-11-19T00:59:07;9.70;99.90
9973;DHT22;5027;53.560;10.062;2023-11-19T01:01:34;9.60;99.90
9973;DHT22;5027;53.560;10.062;2023-11-19T01:04:02;9.60;99.90
9973;DHT22;5027;53.560;10.062;2023-11-19T01:06:30;9.40;99.90
9973;DHT22;5027;53.560;10.062;2023-11-19T01:08:57;9.30;99.90
9973;DHT22;5027;53.560;10.062;2023-11-19T01:11:25;9.40;99.90
9973;DHT22;5027;53.560;10.062;2023-11-19T01:13:52;9.60;99.90
9973;DHT22;5027;53.560;10.062;2023-11-19T01:16:19;9.50;99.90
9973;DHT22;5027;53.560;10.062;2023-11-19T01:18:47;9.40;99.90
9973;DHT22;5027;53.560;10.062;2023-11-19T01:21:15;9.60;99.90
9973;DHT22;5027;53.560;10.062;2023-11-19T01:23:42;9.70;99.90
9973;DHT22;5027;53.560;10.062;2023-11-19T01:26:10;9.50;99.90
9973;DHT22;5027;53.560;10.062;2023-11-19T01:28:37;9.50;99.90
9973;DHT22;5027;53.560;10.062;2023-11-19T01:31:18;9.50;99.90
9973;DHT22;5027;53.560;10.062;2023-11-19T01:33:45;9.40;99.90
9973;DHT22;5027;53.560;10.062;2023-11-19T01:36:13;9.30;99.90
9973;DHT22;5027;53.560;10.062;2023-11-19T01:38:41;9.40;99.90
9973;DHT22;5027;53.560;10.062;2023-11-19T01:41:07;9.30;99.90
9973;DHT22;5027;53.560;10.062;2023-11-19T01:43:36;9.30;99.90
9973;DHT22;5027;53.560;10.062;2023-11-19T01:46:05;9.40;99.90
9973;DHT22;5027;53.560;10.062;2023-11-19T01:48:37;9.30;99.90
9973;DHT22;5027;53.560;10.062;2023-11-19T01:51:07;9.30;99.90
9973;DHT22;5027;53.560;10.062;2023-11-19T01:53:36;9.20;99.90
9973;DHT22;5027;53.560;10.062;2023-11-19T01:56:05;9.40;99.90
9973;DHT22;5027;53.560;10.062;2023-11-19T01:58:36;9.40;99.90
9973;DHT22;5027;53.560;10.062;2023-11-19T02:01:03;9.60;99.90
9973;DHT22;5027;53.560;10.062;2023-11-19T02:03:31;9.60;99.90
9973;DHT22;5027;53.560;10.062;2023-11-19T02:06:00;9.50;99.90
9973;DHT22;5027;53.560;10.062;2023-11-19T02:08:27;9.50;99.90
9973;DHT22;5027;53.560;10.062;2023-11-19T02:10:54;9.60;99.90
9973;DHT22;5027;53.560;10.062;2023-11-19T02:13:26;9.60;99.90
9973;DHT22;5027;53.560;10.062;2023-11-19T02:15:53;9.70;99.90
9973;DHT22;5027;53.560;10.062;2023-11-19T02:18:24;9.80;99.90
9973;DHT22;5027;53.560;10.062;2023-11-19T02:20:55;9.70;99.90
9973;DHT22;5027;53.560;10.062;2023-11-19T02:23:22;9.60;99.90
9973;DHT22;5027;53.560;10.062;2023-11-19T02:28:26;9.50;99.90
9973;DHT22;5027;53.560;10.062;2023-11-19T02:30:53;9.50;99.90
9973;DHT22;5027;53.560;10.062;2023-11-19T02:33:20;9.60;99.90
9973;DHT22;5027;53.560;10.062;2023-11-19T02:35:47;9.60;99.90
9973;DHT22;5027;53.560;10.062;2023-11-19T02:38:14;9.70;99.90
9973;DHT22;5027;53.560;10.062;2023-11-19T02:40:40;9.70;99.90
9973;DHT22;5027;53.560;10.062;2023-11-19T02:43:07;9.60;99.90
9973;DHT22;5027;53.560;10.062;2023-11-19T02:45:35;9.70;99.90
9973;DHT22;5027;53.560;10.062;2023-11-19T02:48:02;9.70;99.90
9973;DHT22;5027;53.560;10.062;2023-11-19T02:50:29;9.60;99.90
9973;DHT22;5027;53.560;10.062;2023-11-19T02:52:57;9.70;99.90
9973;DHT22;5027;53.560;10.062;2023-11-19T02:55:24;9.70;99.90
9973;DHT22;5027;53.560;10.062;2023-11-19T02:57:52;9.60;99.90
9973;DHT22;5027;53.560;10.062;2023-11-19T03:00:23;9.60;99.90
9973;DHT22;5027;53.560;10.062;2023-11-19T03:02:51;9.70;99.90
9973;DHT22;5027;53.560;10.062;2023-11-19T03:05:37;9.70;99.90
9973;DHT22;5027;53.560;10.062;2023-11-19T03:08:04;9.60;99.90
9973;DHT22;5027;53.560;10.062;2023-11-19T03:10:30;9.70;99.90
9973;DHT22;5027;53.560;10.062;2023-11-19T03:12:57;9.80;99.90
9973;DHT22;5027;53.560;10.062;2023-11-19T03:15:24;9.80;99.90
9973;DHT22;5027;53.560;10.062;2023-11-19T03:17:51;9.80;99.90
9973;DHT22;5027;53.560;10.062;2023-11-19T03:20:18;9.80;99.90
9973;DHT22;5027;53.560;10.062;2023-11-19T03:22:45;9.80;99.90
9973;DHT22;5027;53.560;10.062;2023-11-19T03:25:12;9.90;99.90
9973;DHT22;5027;53.560;10.062;2023-11-19T03:27:39;9.90;99.90
9973;DHT22;5027;53.560;10.062;2023-11-19T03:30:11;9.80;99.90
9973;DHT22;5027;53.560;10.062;2023-11-19T03:32:38;9.90;99.90
9973;DHT22;5027;53.560;10.062;2023-11-19T03:35:06;9.80;99.90
9973;DHT22;5027;53.560;10.062;2023-11-19T03:37:36;9.80;99.90
9973;DHT22;5027;53.560;10.062;2023-11-19T03:40:03;9.70;99.90
9973;DHT22;5027;53.560;10.062;2023-11-19T03:42:31;9.80;99.90
9973;DHT22;5027;53.560;10.062;2023-11-19T03:44:58;9.90;99.90
9973;DHT22;5027;53.560;10.062;2023-11-19T03:47:25;9.90;99.90
9973;DHT22;5027;53.560;10.062;2023-11-19T03:49:52;9.90;99.90
9973;DHT22;5027;53.560;10.062;2023-11-19T03:52:19;10.00;99.90
9973;DHT22;5027;53.560;10.062;2023-11-19T03:54:47;10.00;99.90
9973;DHT22;5027;53.560;10.062;2023-11-19T03:57:13;9.90;99.90
9973;DHT22;5027;53.560;10.062;2023-11-19T03:59:42;10.00;99.90
9973;DHT22;5027;53.560;10.062;2023-11-19T04:02:08;10.00;99.90
9973;DHT22;5027;53.560;10.062;2023-11-19T04:04:35;9.90;99.90
9973;DHT22;5027;53.560;10.062;2023-11-19T04:07:02;9.90;99.90
9973;DHT22;5027;53.560;10.062;2023-11-19T04:09:29;9.90;99.90
9973;DHT22;5027;53.560;10.062;2023-11-19T04:11:57;9.90;99.90
9973;DHT22;5027;53.560;10.062;2023-11-19T04:14:23;10.00;99.90
9973;DHT22;5027;53.560;10.062;2023-11-19T04:16:51;10.00;99.90
9973;DHT22;5027;53.560;10.062;2023-11-19T04:19:19;10.00;99.90
9973;DHT22;5027;53.560;10.062;2023-11-19T04:21:46;10.10;99.90
9973;DHT22;5027;53.560;10.062;2023-11-19T04:24:13;10.10;99.90
9973;DHT22;5027;53.560;10.062;2023-11-19T04:26:44;10.00;99.90
9973;DHT22;5027;53.560;10.062;2023-11-19T04:29:13;10.00;99.90
9973;DHT22;5027;53.560;10.062;2023-11-19T04:31:40;10.00;99.90
9973;DHT22;5027;53.560;10.062;2023-11-19T04:34:07;10.00;99.90
9973;DHT22;5027;53.560;10.062;2023-11-19T04:36:34;10.10;99.90
9973;DHT22;5027;53.560;10.062;2023-11-19T04:39:01;10.10;99.90
9973;DHT22;5027;53.560;10.062;2023-11-19T04:41:28;10.10;99.90
9973;DHT22;5027;53.560;10.062;2023-11-19T04:43:55;10.20;99.90
9973;DHT22;5027;53.560;10.062;2023-11-19T04:46:22;10.10;99.90
9973;DHT22;5027;53.560;10.062;2023-11-19T04:48:50;10.20;99.90
9973;DHT22;5027;53.560;10.062;2023-11-19T04:51:17;10.10;99.90
9973;DHT22;5027;53.560;10.062;2023-11-19T04:53:44;10.20;99.90
9973;DHT22;5027;53.560;10.062;2023-11-19T04:56:11;10.20;99.90
9973;DHT22;5027;53.560;10.062;2023-11-19T04:58:38;10.20;99.90
9973;DHT22;5027;53.560;10.062;2023-11-19T05:01:05;10.20;99.90
9973;DHT22;5027;53.560;10.062;2023-11-19T05:03:32;10.20;99.90
9973;DHT22;5027;53.560;10.062;2023-11-19T05:05:59;10.20;99.90
9973;DHT22;5027;53.560;10.062;2023-11-19T05:08:26;10.20;99.90
9973;DHT22;5027;53.560;10.062;2023-11-19T05:10:53;10.30;99.90
9973;DHT22;5027;53.560;10.062;2023-11-19T05:13:19;10.30;99.90
9973;DHT22;5027;53.560;10.062;2023-11-19T05:15:46;10.30;99.90
9973;DHT22;5027;53.560;10.062;2023-11-19T05:18:13;10.30;99.90
9973;DHT22;5027;53.560;10.062;2023-11-19T05:20:40;10.40;99.90
9973;DHT22;5027;53.560;10.062;2023-11-19T05:23:06;10.40;99.90
9973;DHT22;5027;53.560;10.062;2023-11-19T05:25:47;10.40;99.90
9973;DHT22;5027;53.560;10.062;2023-11-19T05:28:14;10.40;99.90
9973;DHT22;5027;53.560;10.062;2023-11-19T05:30:41;10.50;99.90
9973;DHT22;5027;53.560;10.062;2023-11-19T05:33:08;10.50;99.90
9973;DHT22;5027;53.560;10.062;2023-11-19T05:35:34;10.50;99.90
9973;DHT22;5027;53.560;10.062;2023-11-19T05:38:01;10.50;99.90
9973;DHT22;5027;53.560;10.062;2023-11-19T05:40:29;10.50;99.90
9973;DHT22;5027;53.560;10.062;2023-11-19T05:42:56;10.50;99.90
9973;DHT22;5027;53.560;10.062;2023-11-19T05:45:22;10.50;99.90
9973;DHT22;5027;53.560;10.062;2023-11-19T05:47:49;10.50;99.90
9973;DHT22;5027;53.560;10.062;2023-11-19T05:50:16;10.50;99.90
9973;DHT22;5027;53.560;10.062;2023-11-19T05:52:43;10.60;99.90
9973;DHT22;5027;53.560;10.062;2023-11-19T05:55:09;10.60;99.90
9973;DHT22;5027;53.560;10.062;2023-11-19T05:57:37;10.60;99.90
9973;DHT22;5027;53.560;10.062;2023-11-19T06:00:07;10.70;99.90
9973;DHT22;5027;53.560;10.062;2023-11-19T06:02:37;10.70;99.90
9973;DHT22;5027;53.560;10.062;2023-11-19T06:05:05;10.80;99.90
9973;DHT22;5027;53.560;10.062;2023-11-19T06:07:33;10.80;99.90
9973;DHT22;5027;53.560;10.062;2023-11-19T06:10:00;10.80;99.90
9973;DHT22;5027;53.560;10.062;2023-11-19T06:12:27;10.90;99.90
9973;DHT22;5027;53.560;10.062;2023-11-19T06:14:54;11.00;99.90
9973;DHT22;5027;53.560;10.062;2023-11-19T06:17:21;11.10;99.90
9973;DHT22;5027;53.560;10.062;2023-11-19T06:19:47;11.10;99.90
9973;DHT22;5027;53.560;10.062;2023-11-19T06:22:14;11.10;99.90
9973;DHT22;5027;53.560;10.062;2023-11-19T06:24:41;11.10;99.90
9973;DHT22;5027;53.560;10.062;2023-11-19T06:27:08;11.20;99.90
9973;DHT22;5027;53.560;10.062;2023-11-19T06:29:34;11.20;99.90
9973;DHT22;5027;53.560;10.062;2023-11-19T06:32:01;11.20;99.90
9973;DHT22;5027;53.560;10.062;2023-11-19T06:34:41;11.30;99.90
9973;DHT22;5027;53.560;10.062;2023-11-19T06:37:08;11.50;99.90
9973;DHT22;5027;53.560;10.062;2023-11-19T06:39:35;11.50;99.90
9973;DHT22;5027;53.560;10.062;2023-11-19T06:42:03;11.50;99.90
9973;DHT22;5027;53.560;10.062;2023-11-19T06:44:30;11.50;99.90
9973;DHT22;5027;53.560;10.062;2023-11-19T06:46:57;11.50;99.90
9973;DHT22;5027;53.560;10.062;2023-11-19T06:49:24;11.50;99.90
9973;DHT22;5027;53.560;10.062;2023-11-19T06:51:51;11.60;99.90
9973;DHT22;5027;53.560;10.062;2023-11-19T06:54:18;11.60;99.90
9973;DHT22;5027;53.560;10.062;2023-11-19T06:56:44;11.60;99.90
9973;DHT22;5027;53.560;10.062;2023-11-19T06:59:14;11.60;99.90
9973;DHT22;5027;53.560;10.062;2023-11-19T07:01:40;11.60;99.90
9973;DHT22;5027;53.560;10.062;2023-11-19T07:04:11;11.70;99.90
9973;DHT22;5027;53.560;10.062;2023-11-19T07:06:39;11.70;99.90
9973;DHT22;5027;53.560;10.062;2023-11-19T07:09:09;11.70;99.90
9973;DHT22;5027;53.560;10.062;2023-11-19T07:11:40;11.70;99.90
9973;DHT22;5027;53.560;10.062;2023-11-19T07:14:08;11.70;99.90
9973;DHT22;5027;53.560;10.062;2023-11-19T07:16:35;11.70;99.90
9973;DHT22;5027;53.560;10.062;2023-11-19T07:19:06;11.70;99.90
9973;DHT22;5027;53.560;10.062;2023-11-19T07:21:33;11.70;99.90
9973;DHT22;5027;53.560;10.062;2023-11-19T07:24:00;11.70;99.90
9973;DHT22;5027;53.560;10.062;2023-11-19T07:26:26;11.70;99.90
9973;DHT22;5027;53.560;10.062;2023-11-19T07:28:53;11.80;99.90
9973;DHT22;5027;53.560;10.062;2023-11-19T07:31:22;11.80;99.90
9973;DHT22;5027;53.560;10.062;2023-11-19T07:33:50;11.80;99.90
9973;DHT22;5027;53.560;10.062;2023-11-19T07:36:17;11.70;99.90
9973;DHT22;5027;53.560;10.062;2023-11-19T07:38:45;11.80;99.90
9973;DHT22;5027;53.560;10.062;2023-11-19T07:41:11;11.70;99.90
9973;DHT22;5027;53.560;10.062;2023-11-19T07:43:40;11.80;99.90
9973;DHT22;5027;53.560;10.062;2023-11-19T07:46:11;11.80;99.90
9973;DHT22;5027;53.560;10.062;2023-11-19T07:48:40;11.90;99.90
9973;DHT22;5027;53.560;10.062;2023-11-19T07:51:10;11.90;99.90
9973;DHT22;5027;53.560;10.062;2023-11-19T07:53:38;11.90;99.90
9973;DHT22;5027;53.560;10.062;2023-11-19T07:56:05;11.90;99.90
9973;DHT22;5027;53.560;10.062;2023-11-19T07:58:32;11.90;99.90
9973;DHT22;5027;53.560;10.062;2023-11-19T08:00:59;11.90;99.90
9973;DHT22;5027;53.560;10.062;2023-11-19T08:03:25;11.90;99.90
9973;DHT22;5027;53.560;10.062;2023-11-19T08:05:56;11.90;99.90
9973;DHT22;5027;53.560;10.062;2023-11-19T08:08:25;11.90;99.90
9973;DHT22;5027;53.560;10.062;2023-11-19T08:10:52;11.90;99.90
9973;DHT22;5027;53.560;10.062;2023-11-19T08:13:20;11.90;99.90
9973;DHT22;5027;53.560;10.062;2023-11-19T08:15:47;11.90;99.90
9973;DHT22;5027;53.560;10.062;2023-11-19T08:18:14;11.90;99.90
9973;DHT22;5027;53.560;10.062;2023-11-19T08:20:40;11.90;99.90
9973;DHT22;5027;53.560;10.062;2023-11-19T08:23:09;11.90;99.90
9973;DHT22;5027;53.560;10.062;2023-11-19T08:25:36;11.90;99.90
9973;DHT22;5027;53.560;10.062;2023-11-19T08:28:03;11.90;99.90
9973;DHT22;5027;53.560;10.062;2023-11-19T08:30:30;11.90;99.90
9973;DHT22;5027;53.560;10.062;2023-11-19T08:32:57;12.00;99.90
9973;DHT22;5027;53.560;10.062;2023-11-19T08:35:25;12.00;99.90
9973;DHT22;5027;53.560;10.062;2023-11-19T08:37:52;11.90;99.90
9973;DHT22;5027;53.560;10.062;2023-11-19T08:40:19;11.90;99.90
9973;DHT22;5027;53.560;10.062;2023-11-19T08:42:46;12.00;99.90
9973;DHT22;5027;53.560;10.062;2023-11-19T08:45:13;12.00;99.90
9973;DHT22;5027;53.560;10.062;2023-11-19T08:47:40;12.10;99.90
9973;DHT22;5027;53.560;10.062;2023-11-19T08:50:07;12.00;99.90
9973;DHT22;5027;53.560;10.062;2023-11-19T08:52:35;12.00;99.90
9973;DHT22;5027;53.560;10.062;2023-11-19T08:55:02;12.00;99.90
9973;DHT22;5027;53.560;10.062;2023-11-19T08:57:29;12.00;99.90
9973;DHT22;5027;53.560;10.062;2023-11-19T08:59:56;12.00;99.90
9973;DHT22;5027;53.560;10.062;2023-11-19T09:02:23;12.00;99.90
9973;DHT22;5027;53.560;10.062;2023-11-19T09:04:50;12.10;99.90
9973;DHT22;5027;53.560;10.062;2023-11-19T09:07:19;12.10;99.90
9973;DHT22;5027;53.560;10.062;2023-11-19T09:09:47;12.10;99.90
9973;DHT22;5027;53.560;10.062;2023-11-19T09:12:14;12.10;99.90
9973;DHT22;5027;53.560;10.062;2023-11-19T09:14:41;12.10;99.90
9973;DHT22;5027;53.560;10.062;2023-11-19T09:17:08;12.10;99.90
9973;DHT22;5027;53.560;10.062;2023-11-19T09:19:37;12.10;99.90
9973;DHT22;5027;53.560;10.062;2023-11-19T09:22:03;12.10;99.90
9973;DHT22;5027;53.560;10.062;2023-11-19T09:24:30;12.10;99.90
9973;DHT22;5027;53.560;10.062;2023-11-19T09:26:57;12.10;99.90
9973;DHT22;5027;53.560;10.062;2023-11-19T09:29:24;12.20;99.90
9973;DHT22;5027;53.560;10.062;2023-11-19T09:31:50;12.20;99.90
9973;DHT22;5027;53.560;10.062;2023-11-19T09:34:18;12.20;99.90
9973;DHT22;5027;53.560;10.062;2023-11-19T09:36:44;12.20;99.90
9973;DHT22;5027;53.560;10.062;2023-11-19T09:39:12;12.10;99.90
9973;DHT22;5027;53.560;10.062;2023-11-19T09:41:41;12.10;99.90
9973;DHT22;5027;53.560;10.062;2023-11-19T09:44:09;12.00;99.90
9973;DHT22;5027;53.560;10.062;2023-11-19T09:46:41;12.10;99.90
9973;DHT22;5027;53.560;10.062;2023-11-19T09:49:08;12.10;99.90
9973;DHT22;5027;53.560;10.062;2023-11-19T09:51:36;12.10;99.90
9973;DHT22;5027;53.560;10.062;2023-11-19T09:54:03;12.30;99.90
9973;DHT22;5027;53.560;10.062;2023-11-19T09:56:30;12.20;99.90
9973;DHT22;5027;53.560;10.062;2023-11-19T09:58:59;12.20;99.90
9973;DHT22;5027;53.560;10.062;2023-11-19T10:01:26;12.30;99.90
9973;DHT22;5027;53.560;10.062;2023-11-19T10:03:55;12.30;99.90
9973;DHT22;5027;53.560;10.062;2023-11-19T10:06:23;12.30;99.90
9973;DHT22;5027;53.560;10.062;2023-11-19T10:08:51;12.30;99.90
9973;DHT22;5027;53.560;10.062;2023-11-19T10:11:18;12.30;99.90
9973;DHT22;5027;53.560;10.062;2023-11-19T10:13:45;12.20;99.90
9973;DHT22;5027;53.560;10.062;2023-11-19T10:16:14;12.20;99.90
9973;DHT22;5027;53.560;10.062;2023-11-19T10:18:49;12.20;99.90
9973;DHT22;5027;53.560;10.062;2023-11-19T10:21:18;12.30;99.90
9973;DHT22;5027;53.560;10.062;2023-11-19T10:23:55;12.30;99.90
9973;DHT22;5027;53.560;10.062;2023-11-19T10:26:27;12.20;99.90
9973;DHT22;5027;53.560;10.062;2023-11-19T10:28:55;12.20;99.90
9973;DHT22;5027;53.560;10.062;2023-11-19T10:31:22;12.20;99.90
9973;DHT22;5027;53.560;10.062;2023-11-19T10:33:53;12.20;99.90
9973;DHT22;5027;53.560;10.062;2023-11-19T10:36:20;12.20;99.90
9973;DHT22;5027;53.560;10.062;2023-11-19T10:38:53;12.20;99.90
9973;DHT22;5027;53.560;10.062;2023-11-19T10:41:30;12.20;99.90
9973;DHT22;5027;53.560;10.062;2023-11-19T10:43:58;12.20;99.90
9973;DHT22;5027;53.560;10.062;2023-11-19T10:46:42;12.20;99.90
9973;DHT22;5027;53.560;10.062;2023-11-19T10:49:10;12.30;99.90
9973;DHT22;5027;53.560;10.062;2023-11-19T10:51:44;12.30;99.90
9973;DHT22;5027;53.560;10.062;2023-11-19T10:54:12;12.30;99.90
9973;DHT22;5027;53.560;10.062;2023-11-19T10:56:42;12.30;99.90
9973;DHT22;5027;53.560;10.062;2023-11-19T10:59:12;12.20;99.90
9973;DHT22;5027;53.560;10.062;2023-11-19T11:01:48;12.20;99.90
9973;DHT22;5027;53.560;10.062;2023-11-19T11:04:22;12.20;99.90
9973;DHT22;5027;53.560;10.062;2023-11-19T11:06:50;12.30;99.90
9973;DHT22;5027;53.560;10.062;2023-11-19T11:09:17;12.30;99.90
9973;DHT22;5027;53.560;10.062;2023-11-19T11:11:47;12.30;99.90
9973;DHT22;5027;53.560;10.062;2023-11-19T11:14:14;12.30;99.90
9973;DHT22;5027;53.560;10.062;2023-11-19T11:16:46;12.30;99.90
9973;DHT22;5027;53.560;10.062;2023-11-19T11:19:16;12.30;99.90
9973;DHT22;5027;53.560;10.062;2023-11-19T11:21:53;12.30;99.90
9973;DHT22;5027;53.560;10.062;2023-11-19T11:24:57;12.30;99.90
9973;DHT22;5027;53.560;10.062;2023-11-19T11:27:49;12.30;99.90
9973;DHT22;5027;53.560;10.062;2023-11-19T11:30:46;12.30;99.90
9973;DHT22;5027;53.560;10.062;2023-11-19T11:33:41;12.30;99.90
9973;DHT22;5027;53.560;10.062;2023-11-19T11:36:22;12.30;99.90
9973;DHT22;5027;53.560;10.062;2023-11-19T11:38:50;12.30;99.90
9973;DHT22;5027;53.560;10.062;2023-11-19T11:41:21;12.40;99.90
9973;DHT22;5027;53.560;10.062;2023-11-19T11:43:53;12.40;99.90
9973;DHT22;5027;53.560;10.062;2023-11-19T11:49:06;12.50;99.90
9973;DHT22;5027;53.560;10.062;2023-11-19T11:54:10;12.50;99.90
9973;DHT22;5027;53.560;10.062;2023-11-19T11:56:38;12.50;99.90
9973;DHT22;5027;53.560;10.062;2023-11-19T11:59:18;12.60;99.90
9973;DHT22;5027;53.560;10.062;2023-11-19T12:01:58;12.60;99.90
9973;DHT22;5027;53.560;10.062;2023-11-19T12:04:28;12.60;99.90
9973;DHT22;5027;53.560;10.062;2023-11-19T12:07:05;12.70;99.90
9973;DHT22;5027;53.560;10.062;2023-11-19T12:09:33;12.70;99.90
9973;DHT22;5027;53.560;10.062;2023-11-19T12:12:11;12.60;99.90
9973;DHT22;5027;53.560;10.062;2023-11-19T12:15:01;12.60;99.90
9973;DHT22;5027;53.560;10.062;2023-11-19T12:20:02;12.70;99.90
9973;DHT22;5027;53.560;10.062;2023-11-19T12:22:29;12.70;99.90
9973;DHT22;5027;53.560;10.062;2023-11-19T12:24:56;12.70;99.90
9973;DHT22;5027;53.560;10.062;2023-11-19T12:27:23;12.70;99.90
9973;DHT22;5027;53.560;10.062;2023-11-19T12:29:50;12.70;99.90
9973;DHT22;5027;53.560;10.062;2023-11-19T12:32:17;12.70;99.90
9973;DHT22;5027;53.560;10.062;2023-11-19T12:34:45;12.60;99.90
9973;DHT22;5027;53.560;10.062;2023-11-19T12:37:11;12.60;99.90
9973;DHT22;5027;53.560;10.062;2023-11-19T12:39:38;12.60;99.90
9973;DHT22;5027;53.560;10.062;2023-11-19T12:42:12;12.80;99.90
9973;DHT22;5027;53.560;10.062;2023-11-19T12:44:48;13.00;99.90
9973;DHT22;5027;53.560;10.062;2023-11-19T12:47:17;12.90;99.90
9973;DHT22;5027;53.560;10.062;2023-11-19T12:49:55;12.80;99.90
9973;DHT22;5027;53.560;10.062;2023-11-19T12:52:22;12.70;99.90
9973;DHT22;5027;53.560;10.062;2023-11-19T12:54:50;12.70;99.90
9973;DHT22;5027;53.560;10.062;2023-11-19T12:57:17;12.70;99.90
9973;DHT22;5027;53.560;10.062;2023-11-19T12:59:56;12.70;99.90
9973;DHT22;5027;53.560;10.062;2023-11-19T13:02:45;12.60;99.90
9973;DHT22;5027;53.560;10.062;2023-11-19T13:05:32;12.70;99.90
9973;DHT22;5027;53.560;10.062;2023-11-19T13:08:04;12.70;99.90
9973;DHT22;5027;53.560;10.062;2023-11-19T13:10:52;12.70;99.90
9973;DHT22;5027;53.560;10.062;2023-11-19T13:13:22;12.70;99.90
9973;DHT22;5027;53.560;10.062;2023-11-19T13:15:48;12.70;99.90
9973;DHT22;5027;53.560;10.062;2023-11-19T13:18:16;12.70;99.90
9973;DHT22;5027;53.560;10.062;2023-11-19T13:20:43;12.70;99.90
9973;DHT22;5027;53.560;10.062;2023-11-19T13:23:10;12.80;99.90
9973;DHT22;5027;53.560;10.062;2023-11-19T13:25:37;12.90;99.90
9973;DHT22;5027;53.560;10.062;2023-11-19T13:28:04;13.00;99.90
9973;DHT22;5027;53.560;10.062;2023-11-19T13:30:32;13.00;99.90
9973;DHT22;5027;53.560;10.062;2023-11-19T13:32:59;12.90;99.90
9973;DHT22;5027;53.560;10.062;2023-11-19T13:35:27;12.80;99.90
9973;DHT22;5027;53.560;10.062;2023-11-19T13:37:54;12.80;99.90
9973;DHT22;5027;53.560;10.062;2023-11-19T13:40:21;12.80;99.90
9973;DHT22;5027;53.560;10.062;2023-11-19T13:42:49;12.80;99.90
9973;DHT22;5027;53.560;10.062;2023-11-19T13:45:16;12.80;99.90
9973;DHT22;5027;53.560;10.062;2023-11-19T13:47:45;12.70;99.90
9973;DHT22;5027;53.560;10.062;2023-11-19T13:50:14;12.70;99.90
9973;DHT22;5027;53.560;10.062;2023-11-19T13:52:43;12.70;99.90
9973;DHT22;5027;53.560;10.062;2023-11-19T13:55:11;12.70;99.90
9973;DHT22;5027;53.560;10.062;2023-11-19T13:57:40;12.70;99.90
9973;DHT22;5027;53.560;10.062;2023-11-19T14:00:08;12.70;99.90
9973;DHT22;5027;53.560;10.062;2023-11-19T14:02:40;12.70;99.90
9973;DHT22;5027;53.560;10.062;2023-11-19T14:05:08;12.70;99.90
9973;DHT22;5027;53.560;10.062;2023-11-19T14:07:35;12.70;99.90
9973;DHT22;5027;53.560;10.062;2023-11-19T14:10:02;12.70;99.90
9973;DHT22;5027;53.560;10.062;2023-11-19T14:12:29;12.70;99.90
9973;DHT22;5027;53.560;10.062;2023-11-19T14:14:57;12.70;99.90
9973;DHT22;5027;53.560;10.062;2023-11-19T14:17:23;12.70;99.90
9973;DHT22;5027;53.560;10.062;2023-11-19T14:19:51;12.70;99.90
9973;DHT22;5027;53.560;10.062;2023-11-19T14:22:18;12.70;99.90
9973;DHT22;5027;53.560;10.062;2023-11-19T14:24:45;12.70;99.90
9973;DHT22;5027;53.560;10.062;2023-11-19T14:27:12;12.70;99.90
9973;DHT22;5027;53.560;10.062;2023-11-19T14:29:39;12.70;99.90
9973;DHT22;5027;53.560;10.062;2023-11-19T14:32:06;12.70;99.90
9973;DHT22;5027;53.560;10.062;2023-11-19T14:34:33;12.70;99.90
9973;DHT22;5027;53.560;10.062;2023-11-19T14:37:00;12.70;99.90
9973;DHT22;5027;53.560;10.062;2023-11-19T14:39:27;12.70;99.90
9973;DHT22;5027;53.560;10.062;2023-11-19T14:41:56;12.70;99.90
9973;DHT22;5027;53.560;10.062;2023-11-19T14:44:25;12.70;99.90
9973;DHT22;5027;53.560;10.062;2023-11-19T14:46:51;12.70;99.90
9973;DHT22;5027;53.560;10.062;2023-11-19T14:49:18;12.70;99.90
9973;DHT22;5027;53.560;10.062;2023-11-19T14:51:45;12.70;99.90
9973;DHT22;5027;53.560;10.062;2023-11-19T14:54:14;12.60;99.90
9973;DHT22;5027;53.560;10.062;2023-11-19T14:56:42;12.60;99.90
9973;DHT22;5027;53.560;10.062;2023-11-19T14:59:09;12.60;99.90
9973;DHT22;5027;53.560;10.062;2023-11-19T15:01:36;12.60;99.90
9973;DHT22;5027;53.560;10.062;2023-11-19T15:04:03;12.60;99.90
9973;DHT22;5027;53.560;10.062;2023-11-19T15:06:32;12.60;99.90
9973;DHT22;5027;53.560;10.062;2023-11-19T15:09:00;12.50;99.90
9973;DHT22;5027;53.560;10.062;2023-11-19T15:11:27;12.50;99.90
9973;DHT22;5027;53.560;10.062;2023-11-19T15:13:55;12.60;99.90
9973;DHT22;5027;53.560;10.062;2023-11-19T15:16:22;12.70;99.90
9973;DHT22;5027;53.560;10.062;2023-11-19T15:18:52;12.50;99.90
9973;DHT22;5027;53.560;10.062;2023-11-19T15:21:19;12.50;99.90
9973;DHT22;5027;53.560;10.062;2023-11-19T15:23:46;12.50;99.90
9973;DHT22;5027;53.560;10.062;2023-11-19T15:26:13;12.40;99.90
9973;DHT22;5027;53.560;10.062;2023-11-19T15:28:39;12.30;99.90
9973;DHT22;5027;53.560;10.062;2023-11-19T15:31:06;12.40;99.90
9973;DHT22;5027;53.560;10.062;2023-11-19T15:33:33;12.40;99.90
9973;DHT22;5027;53.560;10.062;2023-11-19T15:36:00;12.40;99.90
9973;DHT22;5027;53.560;10.062;2023-11-19T15:38:28;12.40;99.90
9973;DHT22;5027;53.560;10.062;2023-11-19T15:40:56;12.40;99.90
9973;DHT22;5027;53.560;10.062;2023-11-19T15:43:22;12.40;99.90
9973;DHT22;5027;53.560;10.062;2023-11-19T15:45:49;12.40;99.90
9973;DHT22;5027;53.560;10.062;2023-11-19T15:48:16;12.40;99.90
9973;DHT22;5027;53.560;10.062;2023-11-19T15:50:44;12.40;99.90
9973;DHT22;5027;53.560;10.062;2023-11-19T15:53:11;12.40;99.90
9973;DHT22;5027;53.560;10.062;2023-11-19T15:55:39;12.40;99.90
9973;DHT22;5027;53.560;10.062;2023-11-19T15:58:06;12.40;99.90
9973;DHT22;5027;53.560;10.062;2023-11-19T16:00:33;12.40;99.90
9973;DHT22;5027;53.560;10.062;2023-11-19T16:02:59;12.40;99.90
9973;DHT22;5027;53.560;10.062;2023-11-19T16:05:27;12.40;99.90
9973;DHT22;5027;53.560;10.062;2023-11-19T16:07:54;12.50;99.90